sensor_id;sensor_type;location;lat;lon;timestamp;temperature;humidity
16513;DHT22;8369;48.030;11.598;2023-05-19T00:00:21;9.90;99.90
16513;DHT22;8369;48.030;11.598;2023-05-19T00:02:47;9.90;99.90
16513;DHT22;8369;48.030;11.598;2023-05-19T00:05:14;9.90;99.90
16513;DHT22;8369;48.030;11.598;2023-05-19T00:07:43;9.90;99.90
16513;DHT22;8369;48.030;11.598;2023-05-19T00:10:11;9.90;99.90
16513;DHT22;8369;48.030;11.598;2023-05-19T00:12:37;9.80;99.90
16513;DHT22;8369;48.030;11.598;2023-05-19T00:15:04;9.90;99.90
16513;DHT22;8369;48.030;11.598;2023-05-19T00:17:31;9.80;99.90
16513;DHT22;8369;48.030;11.598;2023-05-19T00:19:59;9.80;99.90
16513;DHT22;8369;48.030;11.598;2023-05-19T00:22:27;9.80;99.90
16513;DHT22;8369;48.030;11.598;2023-05-19T00:24:53;9.80;99.90
16513;DHT22;8369;48.030;11.598;2023-05-19T00:27:19;9.80;99.90
16513;DHT22;8369;48.030;11.598;2023-05-19T00:29:51;9.80;99.90
16513;DHT22;8369;48.030;11.598;2023-05-19T00:32:18;9.80;99.90
16513;DHT22;8369;48.030;11.598;2023-05-19T00:34:44;9.80;99.90
16513;DHT22;8369;48.030;11.598;2023-05-19T00:37:13;9.80;99.90
16513;DHT22;8369;48.030;11.598;2023-05-19T00:39:41;9.80;99.90
16513;DHT22;8369;48.030;11.598;2023-05-19T00:42:07;9.80;99.90
16513;DHT22;8369;48.030;11.598;2023-05-19T00:44:35;9.80;99.90
16513;DHT22;8369;48.030;11.598;2023-05-19T00:47:03;9.80;99.90
16513;DHT22;8369;48.030;11.598;2023-05-19T00:49:29;9.80;99.90
16513;DHT22;8369;48.030;11.598;2023-05-19T00:51:56;9.80;99.90
16513;DHT22;8369;48.030;11.598;2023-05-19T00:54:22;9.80;99.90
16513;DHT22;8369;48.030;11.598;2023-05-19T00:56:49;9.70;99.90
16513;DHT22;8369;48.030;11.598;2023-05-19T00:59:15;9.70;99.90
16513;DHT22;8369;48.030;11.598;2023-05-19T01:01:42;9.70;99.90
16513;DHT22;8369;48.030;11.598;2023-05-19T01:04:08;9.70;99.90
16513;DHT22;8369;48.030;11.598;2023-05-19T01:06:36;9.70;99.90
16513;DHT22;8369;48.030;11.598;2023-05-19T01:09:03;9.70;99.90
16513;DHT22;8369;48.030;11.598;2023-05-19T01:11:30;9.70;99.90
16513;DHT22;8369;48.030;11.598;2023-05-19T01:13:56;9.70;99.90
16513;DHT22;8369;48.030;11.598;2023-05-19T01:22:07;9.70;99.90
16513;DHT22;8369;48.030;11.598;2023-05-19T01:27:41;9.70;99.90
16513;DHT22;8369;48.030;11.598;2023-05-19T01:30:23;9.60;99.90
16513;DHT22;8369;48.030;11.598;2023-05-19T01:32:53;9.60;99.90
16513;DHT22;8369;48.030;11.598;2023-05-19T01:35:22;9.60;99.90
16513;DHT22;8369;48.030;11.598;2023-05-19T01:37:51;9.60;99.90
16513;DHT22;8369;48.030;11.598;2023-05-19T01:40:20;9.60;99.90
16513;DHT22;8369;48.030;11.598;2023-05-19T01:42:48;9.60;99.90
16513;DHT22;8369;48.030;11.598;2023-05-19T01:45:16;9.60;99.90
16513;DHT22;8369;48.030;11.598;2023-05-19T01:47:50;9.60;99.90
16513;DHT22;8369;48.030;11.598;2023-05-19T01:50:16;9.60;99.90
16513;DHT22;8369;48.030;11.598;2023-05-19T01:52:45;9.60;99.90
16513;DHT22;8369;48.030;11.598;2023-05-19T01:55:12;9.60;99.90
16513;DHT22;8369;48.030;11.598;2023-05-19T02:01:20;9.60;99.90
16513;DHT22;8369;48.030;11.598;2023-05-19T02:06:42;9.50;99.90
16513;DHT22;8369;48.030;11.598;2023-05-19T02:12:10;9.50;99.90
16513;DHT22;8369;48.030;11.598;2023-05-19T02:15:04;9.50;99.90
16513;DHT22;8369;48.030;11.598;2023-05-19T02:17:34;9.50;99.90
16513;DHT22;8369;48.030;11.598;2023-05-19T02:20:07;9.50;99.90
16513;DHT22;8369;48.030;11.598;2023-05-19T02:22:34;9.50;99.90
16513;DHT22;8369;48.030;11.598;2023-05-19T02:25:09;9.40;99.90
16513;DHT22;8369;48.030;11.598;2023-05-19T02:27:44;9.40;99.90
16513;DHT22;8369;48.030;11.598;2023-05-19T02:30:10;9.40;99.90
16513;DHT22;8369;48.030;11.598;2023-05-19T02:32:36;9.50;99.90
16513;DHT22;8369;48.030;11.598;2023-05-19T02:35:04;9.50;99.90
16513;DHT22;8369;48.030;11.598;2023-05-19T02:37:30;9.50;99.90
16513;DHT22;8369;48.030;11.598;2023-05-19T02:39:57;9.50;99.90
16513;DHT22;8369;48.030;11.598;2023-05-19T02:42:23;9.50;99.90
16513;DHT22;8369;48.030;11.598;2023-05-19T02:44:49;9.50;99.90
16513;DHT22;8369;48.030;11.598;2023-05-19T02:47:16;9.50;99.90
16513;DHT22;8369;48.030;11.598;2023-05-19T02:49:42;9.50;99.90
16513;DHT22;8369;48.030;11.598;2023-05-19T02:52:11;9.50;99.90
16513;DHT22;8369;48.030;11.598;2023-05-19T02:54:37;9.50;99.90
16513;DHT22;8369;48.030;11.598;2023-05-19T02:57:03;9.50;99.90
16513;DHT22;8369;48.030;11.598;2023-05-19T02:59:30;9.50;99.90
16513;DHT22;8369;48.030;11.598;2023-05-19T03:02:00;9.50;99.90
16513;DHT22;8369;48.030;11.598;2023-05-19T03:04:27;9.50;99.90
16513;DHT22;8369;48.030;11.598;2023-05-19T03:06:54;9.50;99.90
16513;DHT22;8369;48.030;11.598;2023-05-19T03:09:20;9.50;99.90
16513;DHT22;8369;48.030;11.598;2023-05-19T03:11:47;9.50;99.90
16513;DHT22;8369;48.030;11.598;2023-05-19T03:14:13;9.50;99.90
16513;DHT22;8369;48.030;11.598;2023-05-19T03:16:39;9.50;99.90
16513;DHT22;8369;48.030;11.598;2023-05-19T03:19:07;9.50;99.90
16513;DHT22;8369;48.030;11.598;2023-05-19T03:21:34;9.50;99.90
16513;DHT22;8369;48.030;11.598;2023-05-19T03:24:00;9.50;99.90
16513;DHT22;8369;48.030;11.598;2023-05-19T03:26:27;9.50;99.90
16513;DHT22;8369;48.030;11.598;2023-05-19T03:28:54;9.50;99.90
16513;DHT22;8369;48.030;11.598;2023-05-19T03:31:20;9.50;99.90
16513;DHT22;8369;48.030;11.598;2023-05-19T03:33:47;9.50;99.90
16513;DHT22;8369;48.030;11.598;2023-05-19T03:36:13;9.50;99.90
16513;DHT22;8369;48.030;11.598;2023-05-19T03:38:39;9.50;99.90
16513;DHT22;8369;48.030;11.598;2023-05-19T03:41:06;9.50;99.90
16513;DHT22;8369;48.030;11.598;2023-05-19T03:43:32;9.50;99.90
16513;DHT22;8369;48.030;11.598;2023-05-19T03:45:58;9.50;99.90
16513;DHT22;8369;48.030;11.598;2023-05-19T03:48:24;9.50;99.90
16513;DHT22;8369;48.030;11.598;2023-05-19T03:50:51;9.50;99.90
16513;DHT22;8369;48.030;11.598;2023-05-19T03:53:17;9.50;99.90
16513;DHT22;8369;48.030;11.598;2023-05-19T03:55:46;9.50;99.90
16513;DHT22;8369;48.030;11.598;2023-05-19T03:58:14;9.50;99.90
16513;DHT22;8369;48.030;11.598;2023-05-19T04:00:41;9.50;99.90
16513;DHT22;8369;48.030;11.598;2023-05-19T04:03:07;9.50;99.90
16513;DHT22;8369;48.030;11.598;2023-05-19T04:05:33;9.50;99.90
16513;DHT22;8369;48.030;11.598;2023-05-19T04:07:59;9.60;99.90
16513;DHT22;8369;48.030;11.598;2023-05-19T04:10:26;9.60;99.90
16513;DHT22;8369;48.030;11.598;2023-05-19T04:12:52;9.60;99.90
16513;DHT22;8369;48.030;11.598;2023-05-19T04:15:18;9.60;99.90
16513;DHT22;8369;48.030;11.598;2023-05-19T04:17:44;9.60;99.90
16513;DHT22;8369;48.030;11.598;2023-05-19T04:20:11;9.60;99.90
16513;DHT22;8369;48.030;11.598;2023-05-19T04:22:38;9.60;99.90
16513;DHT22;8369;48.030;11.598;2023-05-19T04:25:05;9.60;99.90
16513;DHT22;8369;48.030;11.598;2023-05-19T04:27:32;9.60;99.90
16513;DHT22;8369;48.030;11.598;2023-05-19T04:30:02;9.60;99.90
16513;DHT22;8369;48.030;11.598;2023-05-19T04:32:28;9.70;99.90
16513;DHT22;8369;48.030;11.598;2023-05-19T04:34:56;9.70;99.90
16513;DHT22;8369;48.030;11.598;2023-05-19T04:37:26;9.70;99.90
16513;DHT22;8369;48.030;11.598;2023-05-19T04:39:53;9.70;99.90
16513;DHT22;8369;48.030;11.598;2023-05-19T04:42:18;9.70;99.90
16513;DHT22;8369;48.030;11.598;2023-05-19T04:44:46;9.70;99.90
16513;DHT22;8369;48.030;11.598;2023-05-19T04:47:14;9.70;99.90
16513;DHT22;8369;48.030;11.598;2023-05-19T04:49:40;9.70;99.90
16513;DHT22;8369;48.030;11.598;2023-05-19T04:52:07;9.70;99.90
16513;DHT22;8369;48.030;11.598;2023-05-19T04:54:36;9.70;99.90
16513;DHT22;8369;48.030;11.598;2023-05-19T04:57:03;9.70;99.90
16513;DHT22;8369;48.030;11.598;2023-05-19T04:59:30;9.70;99.90
16513;DHT22;8369;48.030;11.598;2023-05-19T05:01:56;9.70;99.90
16513;DHT22;8369;48.030;11.598;2023-05-19T05:04:23;9.80;99.90
16513;DHT22;8369;48.030;11.598;2023-05-19T05:06:49;9.80;99.90
16513;DHT22;8369;48.030;11.598;2023-05-19T05:09:16;9.80;99.90
16513;DHT22;8369;48.030;11.598;2023-05-19T05:11:44;9.90;99.90
16513;DHT22;8369;48.030;11.598;2023-05-19T05:14:11;9.90;99.90
16513;DHT22;8369;48.030;11.598;2023-05-19T05:16:38;9.90;99.90
16513;DHT22;8369;48.030;11.598;2023-05-19T05:19:04;9.90;99.90
16513;DHT22;8369;48.030;11.598;2023-05-19T05:21:31;9.90;99.90
16513;DHT22;8369;48.030;11.598;2023-05-19T05:23:58;10.00;99.90
16513;DHT22;8369;48.030;11.598;2023-05-19T05:26:29;10.00;99.90
16513;DHT22;8369;48.030;11.598;2023-05-19T05:28:56;10.10;99.90
16513;DHT22;8369;48.030;11.598;2023-05-19T05:31:23;10.10;99.90
16513;DHT22;8369;48.030;11.598;2023-05-19T05:33:49;10.20;99.90
16513;DHT22;8369;48.030;11.598;2023-05-19T05:36:15;10.30;99.90
16513;DHT22;8369;48.030;11.598;2023-05-19T05:38:41;10.30;99.90
16513;DHT22;8369;48.030;11.598;2023-05-19T05:41:08;10.40;99.90
16513;DHT22;8369;48.030;11.598;2023-05-19T05:43:35;10.40;99.90
16513;DHT22;8369;48.030;11.598;2023-05-19T05:46:01;10.50;99.90
16513;DHT22;8369;48.030;11.598;2023-05-19T05:48:27;10.70;99.90
16513;DHT22;8369;48.030;11.598;2023-05-19T05:50:56;10.70;99.90
16513;DHT22;8369;48.030;11.598;2023-05-19T05:53:24;10.80;99.90
16513;DHT22;8369;48.030;11.598;2023-05-19T05:55:52;10.80;99.90
16513;DHT22;8369;48.030;11.598;2023-05-19T05:58:19;10.90;99.90
16513;DHT22;8369;48.030;11.598;2023-05-19T06:00:45;10.90;99.90
16513;DHT22;8369;48.030;11.598;2023-05-19T06:03:14;11.10;99.90
16513;DHT22;8369;48.030;11.598;2023-05-19T06:05:41;11.10;99.90
16513;DHT22;8369;48.030;11.598;2023-05-19T06:08:07;11.20;99.90
16513;DHT22;8369;48.030;11.598;2023-05-19T06:10:34;11.20;99.90
16513;DHT22;8369;48.030;11.598;2023-05-19T06:13:01;11.20;99.90
16513;DHT22;8369;48.030;11.598;2023-05-19T06:15:27;11.20;99.90
16513;DHT22;8369;48.030;11.598;2023-05-19T06:17:54;11.30;99.90
16513;DHT22;8369;48.030;11.598;2023-05-19T06:20:20;11.40;99.90
16513;DHT22;8369;48.030;11.598;2023-05-19T06:22:47;11.50;99.90
16513;DHT22;8369;48.030;11.598;2023-05-19T06:25:14;11.60;99.90
16513;DHT22;8369;48.030;11.598;2023-05-19T06:27:40;11.70;99.90
16513;DHT22;8369;48.030;11.598;2023-05-19T06:30:07;11.80;99.90
16513;DHT22;8369;48.030;11.598;2023-05-19T06:32:33;11.80;99.90
16513;DHT22;8369;48.030;11.598;2023-05-19T06:34:59;11.80;99.90
16513;DHT22;8369;48.030;11.598;2023-05-19T06:37:25;11.80;99.90
16513;DHT22;8369;48.030;11.598;2023-05-19T06:39:52;11.80;99.90
16513;DHT22;8369;48.030;11.598;2023-05-19T06:42:20;11.80;99.90
16513;DHT22;8369;48.030;11.598;2023-05-19T06:44:51;11.80;99.90
16513;DHT22;8369;48.030;11.598;2023-05-19T06:47:18;11.90;99.90
16513;DHT22;8369;48.030;11.598;2023-05-19T06:49:45;11.90;99.90
16513;DHT22;8369;48.030;11.598;2023-05-19T06:52:15;11.90;99.90
16513;DHT22;8369;48.030;11.598;2023-05-19T06:54:42;12.00;99.90
16513;DHT22;8369;48.030;11.598;2023-05-19T06:57:09;12.10;99.90
16513;DHT22;8369;48.030;11.598;2023-05-19T06:59:35;12.20;99.90
16513;DHT22;8369;48.030;11.598;2023-05-19T07:02:02;12.30;99.90
16513;DHT22;8369;48.030;11.598;2023-05-19T07:04:29;12.40;99.90
16513;DHT22;8369;48.030;11.598;2023-05-19T07:06:56;12.40;99.90
16513;DHT22;8369;48.030;11.598;2023-05-19T07:09:22;12.50;99.90
16513;DHT22;8369;48.030;11.598;2023-05-19T07:11:49;12.70;99.90
16513;DHT22;8369;48.030;11.598;2023-05-19T07:14:15;12.80;99.90
16513;DHT22;8369;48.030;11.598;2023-05-19T07:16:41;13.00;99.90
16513;DHT22;8369;48.030;11.598;2023-05-19T07:19:07;13.10;99.90
16513;DHT22;8369;48.030;11.598;2023-05-19T07:21:34;13.30;99.90
16513;DHT22;8369;48.030;11.598;2023-05-19T07:24:00;13.30;99.90
16513;DHT22;8369;48.030;11.598;2023-05-19T07:26:28;13.40;99.90
16513;DHT22;8369;48.030;11.598;2023-05-19T07:28:54;13.40;99.90
16513;DHT22;8369;48.030;11.598;2023-05-19T07:31:23;13.50;99.90
16513;DHT22;8369;48.030;11.598;2023-05-19T07:33:48;13.50;99.90
16513;DHT22;8369;48.030;11.598;2023-05-19T07:36:15;13.60;99.90
16513;DHT22;8369;48.030;11.598;2023-05-19T07:38:41;13.70;99.90
16513;DHT22;8369;48.030;11.598;2023-05-19T07:41:09;13.70;99.90
16513;DHT22;8369;48.030;11.598;2023-05-19T07:43:35;13.70;99.90
16513;DHT22;8369;48.030;11.598;2023-05-19T07:46:01;13.70;99.90
16513;DHT22;8369;48.030;11.598;2023-05-19T07:48:28;13.70;99.90
16513;DHT22;8369;48.030;11.598;2023-05-19T07:50:56;13.70;99.90
16513;DHT22;8369;48.030;11.598;2023-05-19T07:53:22;13.70;99.90
16513;DHT22;8369;48.030;11.598;2023-05-19T07:55:48;13.70;99.90
16513;DHT22;8369;48.030;11.598;2023-05-19T07:58:15;13.70;99.90
16513;DHT22;8369;48.030;11.598;2023-05-19T08:00:41;13.70;99.90
16513;DHT22;8369;48.030;11.598;2023-05-19T08:03:08;13.70;99.90
16513;DHT22;8369;48.030;11.598;2023-05-19T08:05:35;13.70;99.90
16513;DHT22;8369;48.030;11.598;2023-05-19T08:08:02;13.70;99.90
16513;DHT22;8369;48.030;11.598;2023-05-19T08:10:33;13.70;99.90
16513;DHT22;8369;48.030;11.598;2023-05-19T08:13:00;13.70;99.90
16513;DHT22;8369;48.030;11.598;2023-05-19T08:15:26;13.70;99.90
16513;DHT22;8369;48.030;11.598;2023-05-19T08:17:52;13.70;99.90
16513;DHT22;8369;48.030;11.598;2023-05-19T08:20:19;13.70;99.90
16513;DHT22;8369;48.030;11.598;2023-05-19T08:22:47;13.50;99.90
16513;DHT22;8369;48.030;11.598;2023-05-19T08:25:13;13.40;99.90
16513;DHT22;8369;48.030;11.598;2023-05-19T08:27:39;13.40;99.90
16513;DHT22;8369;48.030;11.598;2023-05-19T08:30:07;13.40;99.90
16513;DHT22;8369;48.030;11.598;2023-05-19T08:32:34;13.30;99.90
16513;DHT22;8369;48.030;11.598;2023-05-19T08:35:01;13.30;99.90
16513;DHT22;8369;48.030;11.598;2023-05-19T08:37:27;13.20;99.90
16513;DHT22;8369;48.030;11.598;2023-05-19T08:39:54;13.20;99.90
16513;DHT22;8369;48.030;11.598;2023-05-19T08:42:20;13.10;99.90
16513;DHT22;8369;48.030;11.598;2023-05-19T08:44:47;13.00;99.90
16513;DHT22;8369;48.030;11.598;2023-05-19T08:47:14;13.00;99.90
16513;DHT22;8369;48.030;11.598;2023-05-19T08:49:46;12.90;99.90
16513;DHT22;8369;48.030;11.598;2023-05-19T08:52:23;12.90;99.90
16513;DHT22;8369;48.030;11.598;2023-05-19T08:54:58;12.80;99.90
16513;DHT22;8369;48.030;11.598;2023-05-19T08:57:27;12.80;99.90
16513;DHT22;8369;48.030;11.598;2023-05-19T08:59:53;12.80;99.90
16513;DHT22;8369;48.030;11.598;2023-05-19T09:02:21;12.70;99.90
16513;DHT22;8369;48.030;11.598;2023-05-19T09:04:48;12.80;99.90
16513;DHT22;8369;48.030;11.598;2023-05-19T09:07:15;12.70;99.90
16513;DHT22;8369;48.030;11.598;2023-05-19T09:09:43;12.70;99.90
16513;DHT22;8369;48.030;11.598;2023-05-19T09:12:13;12.80;99.90
16513;DHT22;8369;48.030;11.598;2023-05-19T09:14:39;12.80;99.90
16513;DHT22;8369;48.030;11.598;2023-05-19T09:17:05;12.90;99.90
16513;DHT22;8369;48.030;11.598;2023-05-19T09:19:32;12.90;99.90
16513;DHT22;8369;48.030;11.598;2023-05-19T09:22:00;12.90;99.90
16513;DHT22;8369;48.030;11.598;2023-05-19T09:24:28;12.90;99.90
16513;DHT22;8369;48.030;11.598;2023-05-19T09:26:55;12.90;99.90
16513;DHT22;8369;48.030;11.598;2023-05-19T09:29:22;13.00;99.90
16513;DHT22;8369;48.030;11.598;2023-05-19T09:31:51;13.00;99.90
16513;DHT22;8369;48.030;11.598;2023-05-19T09:34:21;13.10;99.90
16513;DHT22;8369;48.030;11.598;2023-05-19T09:36:49;13.00;99.90
16513;DHT22;8369;48.030;11.598;2023-05-19T09:39:21;13.00;99.90
16513;DHT22;8369;48.030;11.598;2023-05-19T09:41:53;13.10;99.90
16513;DHT22;8369;48.030;11.598;2023-05-19T09:46:51;13.10;99.90
16513;DHT22;8369;48.030;11.598;2023-05-19T09:49:21;13.10;99.90
16513;DHT22;8369;48.030;11.598;2023-05-19T09:52:00;13.10;99.90
16513;DHT22;8369;48.030;11.598;2023-05-19T09:54:27;13.10;99.90
16513;DHT22;8369;48.030;11.598;2023-05-19T09:57:02;13.10;99.90
16513;DHT22;8369;48.030;11.598;2023-05-19T09:59:46;13.10;99.90
16513;DHT22;8369;48.030;11.598;2023-05-19T10:02:16;13.00;99.90
16513;DHT22;8369;48.030;11.598;2023-05-19T10:04:45;13.00;99.90
16513;DHT22;8369;48.030;11.598;2023-05-19T10:07:13;13.00;99.90
16513;DHT22;8369;48.030;11.598;2023-05-19T10:09:40;13.00;99.90
16513;DHT22;8369;48.030;11.598;2023-05-19T10:12:08;12.90;99.90
16513;DHT22;8369;48.030;11.598;2023-05-19T10:14:35;12.90;99.90
16513;DHT22;8369;48.030;11.598;2023-05-19T10:17:03;12.90;99.90
16513;DHT22;8369;48.030;11.598;2023-05-19T10:19:29;12.90;99.90
16513;DHT22;8369;48.030;11.598;2023-05-19T10:21:55;12.80;99.90
16513;DHT22;8369;48.030;11.598;2023-05-19T10:24:21;12.80;99.90
16513;DHT22;8369;48.030;11.598;2023-05-19T10:26:58;12.80;99.90
16513;DHT22;8369;48.030;11.598;2023-05-19T10:29:28;12.80;99.90
16513;DHT22;8369;48.030;11.598;2023-05-19T10:31:59;12.90;99.90
16513;DHT22;8369;48.030;11.598;2023-05-19T10:37:14;12.90;99.90
16513;DHT22;8369;48.030;11.598;2023-05-19T10:39:42;13.00;99.90
16513;DHT22;8369;48.030;11.598;2023-05-19T10:42:23;13.00;99.90
16513;DHT22;8369;48.030;11.598;2023-05-19T10:45:17;13.00;99.90
16513;DHT22;8369;48.030;11.598;2023-05-19T10:47:44;12.90;99.90
16513;DHT22;8369;48.030;11.598;2023-05-19T10:50:10;12.90;99.90
16513;DHT22;8369;48.030;11.598;2023-05-19T10:52:38;12.90;99.90
16513;DHT22;8369;48.030;11.598;2023-05-19T10:55:11;12.90;99.90
16513;DHT22;8369;48.030;11.598;2023-05-19T10:57:54;12.80;99.90
16513;DHT22;8369;48.030;11.598;2023-05-19T11:00:29;12.80;99.90
16513;DHT22;8369;48.030;11.598;2023-05-19T11:03:15;12.80;99.90
16513;DHT22;8369;48.030;11.598;2023-05-19T11:05:50;12.80;99.90
16513;DHT22;8369;48.030;11.598;2023-05-19T11:08:31;12.80;99.90
16513;DHT22;8369;48.030;11.598;2023-05-19T11:11:15;12.90;99.90
16513;DHT22;8369;48.030;11.598;2023-05-19T11:13:55;13.00;99.90
16513;DHT22;8369;48.030;11.598;2023-05-19T11:16:35;13.00;99.90
16513;DHT22;8369;48.030;11.598;2023-05-19T11:19:01;13.00;99.90
16513;DHT22;8369;48.030;11.598;2023-05-19T11:21:46;13.10;99.90
16513;DHT22;8369;48.030;11.598;2023-05-19T11:24:33;13.10;99.90
16513;DHT22;8369;48.030;11.598;2023-05-19T11:27:26;13.20;99.90
16513;DHT22;8369;48.030;11.598;2023-05-19T11:29:55;13.20;99.90
16513;DHT22;8369;48.030;11.598;2023-05-19T11:32:26;13.30;99.90
16513;DHT22;8369;48.030;11.598;2023-05-19T11:34:55;13.30;99.90
16513;DHT22;8369;48.030;11.598;2023-05-19T11:37:21;13.30;99.90
16513;DHT22;8369;48.030;11.598;2023-05-19T11:39:47;13.30;99.90
16513;DHT22;8369;48.030;11.598;2023-05-19T11:42:13;13.30;99.90
16513;DHT22;8369;48.030;11.598;2023-05-19T11:44:43;13.40;99.90
16513;DHT22;8369;48.030;11.598;2023-05-19T11:47:13;13.40;99.90
16513;DHT22;8369;48.030;11.598;2023-05-19T11:49:57;13.40;99.90
16513;DHT22;8369;48.030;11.598;2023-05-19T11:52:25;13.40;99.90
16513;DHT22;8369;48.030;11.598;2023-05-19T11:54:54;13.40;99.90
16513;DHT22;8369;48.030;11.598;2023-05-19T11:57:21;13.40;99.90
16513;DHT22;8369;48.030;11.598;2023-05-19T11:59:48;13.50;99.90
16513;DHT22;8369;48.030;11.598;2023-05-19T12:02:24;13.50;99.90
16513;DHT22;8369;48.030;11.598;2023-05-19T12:04:52;13.40;99.90
16513;DHT22;8369;48.030;11.598;2023-05-19T12:07:22;13.40;99.90
16513;DHT22;8369;48.030;11.598;2023-05-19T12:09:53;13.50;99.90
16513;DHT22;8369;48.030;11.598;2023-05-19T12:12:20;13.50;99.90
16513;DHT22;8369;48.030;11.598;2023-05-19T12:14:49;13.40;99.90
16513;DHT22;8369;48.030;11.598;2023-05-19T12:17:19;13.30;99.90
16513;DHT22;8369;48.030;11.598;2023-05-19T12:19:49;13.10;99.90
16513;DHT22;8369;48.030;11.598;2023-05-19T12:22:16;13.10;99.90
16513;DHT22;8369;48.030;11.598;2023-05-19T12:24:44;13.00;99.90
16513;DHT22;8369;48.030;11.598;2023-05-19T12:27:13;13.00;99.90
16513;DHT22;8369;48.030;11.598;2023-05-19T12:29:41;13.00;99.90
16513;DHT22;8369;48.030;11.598;2023-05-19T12:32:08;12.90;99.90
16513;DHT22;8369;48.030;11.598;2023-05-19T12:34:36;13.00;99.90
16513;DHT22;8369;48.030;11.598;2023-05-19T12:37:04;13.00;99.90
16513;DHT22;8369;48.030;11.598;2023-05-19T12:39:31;13.00;99.90
16513;DHT22;8369;48.030;11.598;2023-05-19T12:42:08;13.00;99.90
16513;DHT22;8369;48.030;11.598;2023-05-19T12:44:53;13.00;99.90
16513;DHT22;8369;48.030;11.598;2023-05-19T12:47:19;13.00;99.90
16513;DHT22;8369;48.030;11.598;2023-05-19T12:52:28;13.00;99.90
16513;DHT22;8369;48.030;11.598;2023-05-19T12:55:07;13.00;99.90
16513;DHT22;8369;48.030;11.598;2023-05-19T12:57:38;13.00;99.90
16513;DHT22;8369;48.030;11.598;2023-05-19T13:00:05;13.10;99.90
16513;DHT22;8369;48.030;11.598;2023-05-19T13:05:29;13.20;99.90
16513;DHT22;8369;48.030;11.598;2023-05-19T13:08:01;13.20;99.90
16513;DHT22;8369;48.030;11.598;2023-05-19T13:10:29;13.20;99.90
16513;DHT22;8369;48.030;11.598;2023-05-19T13:12:56;13.20;99.90
16513;DHT22;8369;48.030;11.598;2023-05-19T13:15:27;13.20;99.90
16513;DHT22;8369;48.030;11.598;2023-05-19T13:17:59;13.20;99.90
16513;DHT22;8369;48.030;11.598;2023-05-19T13:20:26;13.20;99.90
16513;DHT22;8369;48.030;11.598;2023-05-19T13:22:52;13.30;99.90
16513;DHT22;8369;48.030;11.598;2023-05-19T13:25:19;13.30;99.90
16513;DHT22;8369;48.030;11.598;2023-05-19T13:27:46;13.40;99.90
16513;DHT22;8369;48.030;11.598;2023-05-19T13:30:13;13.50;99.90
16513;DHT22;8369;48.030;11.598;2023-05-19T13:32:41;13.50;99.90
16513;DHT22;8369;48.030;11.598;2023-05-19T13:35:08;13.50;99.90
16513;DHT22;8369;48.030;11.598;2023-05-19T13:37:35;13.60;99.90
16513;DHT22;8369;48.030;11.598;2023-05-19T13:40:02;13.60;99.90
16513;DHT22;8369;48.030;11.598;2023-05-19T13:42:28;13.60;99.90
16513;DHT22;8369;48.030;11.598;2023-05-19T13:44:56;13.60;99.90
16513;DHT22;8369;48.030;11.598;2023-05-19T13:47:24;13.60;99.90
16513;DHT22;8369;48.030;11.598;2023-05-19T13:49:50;13.60;99.90
16513;DHT22;8369;48.030;11.598;2023-05-19T13:52:19;13.60;99.90
16513;DHT22;8369;48.030;11.598;2023-05-19T13:54:45;13.50;99.90
16513;DHT22;8369;48.030;11.598;2023-05-19T13:57:12;13.50;99.90
16513;DHT22;8369;48.030;11.598;2023-05-19T13:59:38;13.50;99.90
16513;DHT22;8369;48.030;11.598;2023-05-19T14:02:05;13.50;99.90
16513;DHT22;8369;48.030;11.598;2023-05-19T14:04:35;13.60;99.90
16513;DHT22;8369;48.030;11.598;2023-05-19T14:07:01;13.60;99.90
16513;DHT22;8369;48.030;11.598;2023-05-19T14:09:28;13.60;99.90
16513;DHT22;8369;48.030;11.598;2023-05-19T14:11:54;13.70;99.90
16513;DHT22;8369;48.030;11.598;2023-05-19T14:14:21;13.70;99.90
16513;DHT22;8369;48.030;11.598;2023-05-19T14:16:47;13.70;99.90
16513;DHT22;8369;48.030;11.598;2023-05-19T14:19:20;13.80;99.90
16513;DHT22;8369;48.030;11.598;2023-05-19T14:21:49;13.80;99.90
16513;DHT22;8369;48.030;11.598;2023-05-19T14:24:18;13.80;99.90
16513;DHT22;8369;48.030;11.598;2023-05-19T14:26:46;13.80;99.90
16513;DHT22;8369;48.030;11.598;2023-05-19T14:29:15;13.70;99.90
16513;DHT22;8369;48.030;11.598;2023-05-19T14:31:42;13.70;99.90
16513;DHT22;8369;48.030;11.598;2023-05-19T14:34:11;13.70;99.90
16513;DHT22;8369;48.030;11.598;2023-05-19T14:36:38;13.70;99.90
16513;DHT22;8369;48.030;11.598;2023-05-19T14:39:04;13.70;99.90
16513;DHT22;8369;48.030;11.598;2023-05-19T14:41:32;13.70;99.90
16513;DHT22;8369;48.030;11.598;2023-05-19T14:43:58;13.70;99.90
16513;DHT22;8369;48.030;11.598;2023-05-19T14:46:24;13.70;99.90
16513;DHT22;8369;48.030;11.598;2023-05-19T14:48:51;13.80;99.90
16513;DHT22;8369;48.030;11.598;2023-05-19T14:51:18;13.80;99.90
16513;DHT22;8369;48.030;11.598;2023-05-19T14:54:23;13.80;99.90
16513;DHT22;8369;48.030;11.598;2023-05-19T14:56:49;13.90;99.90
16513;DHT22;8369;48.030;11.598;2023-05-19T14:59:15;13.80;99.90
16513;DHT22;8369;48.030;11.598;2023-05-19T15:01:41;13.90;99.90
16513;DHT22;8369;48.030;11.598;2023-05-19T15:04:08;13.80;99.90
16513;DHT22;8369;48.030;11.598;2023-05-19T15:06:37;13.80;99.90
16513;DHT22;8369;48.030;11.598;2023-05-19T15:09:03;13.90;99.90
16513;DHT22;8369;48.030;11.598;2023-05-19T15:11:29;13.90;99.90
16513;DHT22;8369;48.030;11.598;2023-05-19T15:13:55;14.00;99.90
16513;DHT22;8369;48.030;11.598;2023-05-19T15:16:22;14.00;99.90
16513;DHT22;8369;48.030;11.598;2023-05-19T15:18:53;14.10;99.90
16513;DHT22;8369;48.030;11.598;2023-05-19T15:21:19;14.20;99.90
16513;DHT22;8369;48.030;11.598;2023-05-19T15:23:45;14.20;99.90
16513;DHT22;8369;48.030;11.598;2023-05-19T15:26:12;14.20;99.90
16513;DHT22;8369;48.030;11.598;2023-05-19T15:28:39;14.30;99.90
16513;DHT22;8369;48.030;11.598;2023-05-19T15:31:05;14.40;99.90
16513;DHT22;8369;48.030;11.598;2023-05-19T15:33:33;14.40;99.90
16513;DHT22;8369;48.030;11.598;2023-05-19T15:35:59;14.60;99.90
16513;DHT22;8369;48.030;11.598;2023-05-19T15:38:25;14.60;99.90
16513;DHT22;8369;48.030;11.598;2023-05-19T15:40:51;14.60;99.90
16513;DHT22;8369;48.030;11.598;2023-05-19T15:43:17;14.70;99.90
16513;DHT22;8369;48.030;11.598;2023-05-19T15:45:46;14.80;99.90
16513;DHT22;8369;48.030;11.598;2023-05-19T15:48:13;14.80;99.90
16513;DHT22;8369;48.030;11.598;2023-05-19T15:50:39;14.90;99.90
16513;DHT22;8369;48.030;11.598;2023-05-19T15:53:06;15.00;99.90
16513;DHT22;8369;48.030;11.598;2023-05-19T15:55:34;15.10;99.90
16513;DHT22;8369;48.030;11.598;2023-05-19T15:58:01;15.10;99.90
16513;DHT22;8369;48.030;11.598;2023-05-19T16:00:27;15.10;99.90
16513;DHT22;8369;48.030;11.598;2023-05-19T16:02:53;15.10;99.90
16513;DHT22;8369;48.030;11.598;2023-05-19T16:05:19;15.00;99.90
16513;DHT22;8369;48.030;11.598;2023-05-19T16:07:46;15.00;99.90
16513;DHT22;8369;48.030;11.598;2023-05-19T16:10:12;15.00;99.90